Time;durP1;ratioP1;P1;durP2;ratioP2;P2;SDS_P1;SDS_P2;PMS_P1;PMS_P2;Temp;Humidity;BMP_temperature;BMP_pressure;BME280_temperature;BME280_humidity;BME280_pressure;Samples;Min_cycle;Max_cycle;Signal;HPM_P1;HPM_P2
2023/08/09 00:00:05;;;;;;;4.97;3.30;;;24.90;73.30;;;;;;5063369;28;20063;-36
2023/08/09 00:02:31;;;;;;;5.18;3.35;;;24.90;73.30;;;;;;5055291;28;21371;-36
2023/08/09 00:04:57;;;;;;;6.15;3.38;;;24.90;73.30;;;;;;5063796;28;20029;-35
2023/08/09 00:07:23;;;;;;;4.40;3.30;;;24.90;73.30;;;;;;5060486;28;20032;-35
2023/08/09 00:09:49;;;;;;;4.57;2.87;;;24.90;73.40;;;;;;5050229;28;20018;-35
2023/08/09 00:12:15;;;;;;;4.80;3.30;;;25.00;73.40;;;;;;5059700;28;20025;-35
2023/08/09 00:14:42;;;;;;;6.13;4.53;;;25.00;73.50;;;;;;5062547;28;20020;-35
2023/08/09 00:17:08;;;;;;;5.43;3.83;;;25.00;73.50;;;;;;5058272;28;20017;-35
2023/08/09 00:19:34;;;;;;;4.78;3.72;;;25.00;73.50;;;;;;5062809;28;20041;-35
2023/08/09 00:22:00;;;;;;;4.00;3.58;;;25.00;73.50;;;;;;5063628;28;20076;-35
2023/08/09 00:24:26;;;;;;;5.63;4.00;;;25.00;73.50;;;;;;5056402;28;20028;-35
2023/08/09 00:26:53;;;;;;;6.07;3.92;;;25.00;73.60;;;;;;5053087;28;20056;-35
2023/08/09 00:29:19;;;;;;;4.13;3.50;;;25.00;73.60;;;;;;5058299;28;20066;-35
2023/08/09 00:31:45;;;;;;;5.57;4.00;;;25.00;73.70;;;;;;5061010;28;20068;-36
2023/08/09 00:34:11;;;;;;;3.47;3.17;;;25.00;73.70;;;;;;5060550;28;20031;-35
2023/08/09 00:36:37;;;;;;;4.38;3.50;;;25.00;73.80;;;;;;5064283;28;20029;-35
2023/08/09 00:39:05;;;;;;;3.88;3.55;;;25.00;73.80;;;;;;5055668;28;20528;-35
2023/08/09 00:41:32;;;;;;;3.90;3.60;;;25.00;73.70;;;;;;5051770;28;20458;-36
2023/08/09 00:43:58;;;;;;;4.43;3.65;;;25.00;73.70;;;;;;5063625;28;20044;-36
2023/08/09 00:46:24;;;;;;;4.18;3.78;;;25.00;73.70;;;;;;5061260;28;20437;-35
2023/08/09 00:48:50;;;;;;;3.63;3.10;;;25.10;73.70;;;;;;5063897;28;20060;-36
2023/08/09 00:51:19;;;;;;;3.72;3.20;;;25.10;73.70;;;;;;5057242;28;20037;-36
2023/08/09 00:53:47;;;;;;;4.32;3.25;;;25.10;73.60;;;;;;5065644;28;20037;-35
2023/08/09 00:56:13;;;;;;;4.53;3.40;;;25.10;73.60;;;;;;5047754;28;20025;-35
2023/08/09 00:58:39;;;;;;;4.60;3.50;;;25.10;73.60;;;;;;5044832;28;20051;-35
2023/08/09 01:01:06;;;;;;;3.70;3.40;;;25.10;73.60;;;;;;5061097;28;20564;-35
2023/08/09 01:03:32;;;;;;;3.30;2.92;;;25.10;73.60;;;;;;5068737;28;20056;-36
2023/08/09 01:06:02;;;;;;;3.28;2.97;;;25.10;73.60;;;;;;5075275;28;20025;-35
2023/08/09 01:08:40;;;;;;;3.42;2.70;;;25.10;73.60;;;;;;5041854;28;20021;-36
2023/08/09 01:11:16;;;;;;;3.13;2.67;;;25.10;73.60;;;;;;5047071;28;20017;-35
2023/08/09 01:13:42;;;;;;;3.67;3.13;;;25.10;73.60;;;;;;5059995;28;20017;-36
2023/08/09 01:16:08;;;;;;;3.35;3.05;;;25.10;73.60;;;;;;5053806;28;20025;-36
2023/08/09 01:18:34;;;;;;;3.30;3.00;;;25.20;73.70;;;;;;5045350;28;20036;-35
2023/08/09 01:21:01;;;;;;;3.75;3.30;;;25.10;73.60;;;;;;5057954;28;20033;-35
2023/08/09 01:23:37;;;;;;;4.50;2.78;;;25.20;73.70;;;;;;5064494;28;20044;-35
2023/08/09 01:26:04;;;;;;;2.85;2.55;;;25.20;73.60;;;;;;5062558;28;20120;-35
2023/08/09 01:28:30;;;;;;;;;;;25.20;73.60;;;;;;5057994;28;20033;-35
2023/08/09 01:30:57;;;;;;;2.90;2.60;;;25.20;73.60;;;;;;5066485;28;19944;-35
2023/08/09 01:33:26;;;;;;;2.90;2.70;;;25.20;73.60;;;;;;5065517;28;20109;-36
2023/08/09 01:36:05;;;;;;;4.03;2.85;;;25.20;73.50;;;;;;5038874;28;20025;-36
2023/08/09 01:38:38;;;;;;;3.45;2.83;;;25.20;73.60;;;;;;5034650;28;20030;-35
2023/08/09 01:41:05;;;;;;;2.72;2.47;;;25.20;73.50;;;;;;5040767;28;20033;-35
2023/08/09 01:43:31;;;;;;;2.80;2.60;;;25.20;73.50;;;;;;5045027;28;20041;-35
2023/08/09 01:45:57;;;;;;;3.30;2.60;;;25.20;72.40;;;;;;5056971;28;20079;-35
2023/08/09 01:48:23;;;;;;;3.17;2.60;;;25.20;71.20;;;;;;5040218;28;20025;-33
2023/08/09 01:50:49;;;;;;;2.85;2.65;;;25.20;71.10;;;;;;5052302;28;20027;-33
2023/08/09 01:53:16;;;;;;;3.63;2.28;;;25.20;71.40;;;;;;5038430;28;20025;-33
2023/08/09 01:55:42;;;;;;;2.90;2.70;;;25.20;71.90;;;;;;5056076;28;20021;-34
2023/08/09 01:58:08;;;;;;;3.47;2.70;;;25.10;72.20;;;;;;5056104;28;20032;-34
2023/08/09 02:00:35;;;;;;;3.60;2.77;;;25.20;72.60;;;;;;5061064;28;20040;-34
2023/08/09 02:03:02;;;;;;;3.23;2.83;;;25.20;72.80;;;;;;5066912;28;20033;-34
2023/08/09 02:05:28;;;;;;;3.67;3.22;;;25.20;73.10;;;;;;5059175;28;20278;-34
2023/08/09 02:07:54;;;;;;;2.97;2.70;;;25.20;73.40;;;;;;5061323;28;20044;-34
2023/08/09 02:10:20;;;;;;;3.28;2.97;;;25.10;73.60;;;;;;5060279;28;20028;-35
2023/08/09 02:12:50;;;;;;;3.43;2.73;;;25.10;73.80;;;;;;5066194;28;20032;-34
2023/08/09 02:15:16;;;;;;;3.08;2.78;;;25.10;73.90;;;;;;5066581;28;20025;-34
2023/08/09 02:17:44;;;;;;;2.63;2.42;;;25.10;74.10;;;;;;5065079;28;20027;-34
2023/08/09 02:20:11;;;;;;;2.88;2.58;;;25.10;74.10;;;;;;5060124;28;20029;-34
2023/08/09 02:22:37;;;;;;;3.33;2.80;;;25.10;74.00;;;;;;5061718;28;20049;-34
2023/08/09 02:25:04;;;;;;;2.65;2.40;;;25.10;73.80;;;;;;5053934;28;20040;-35
2023/08/09 02:27:30;;;;;;;3.05;2.78;;;25.10;73.70;;;;;;5065117;28;20036;-35
2023/08/09 02:29:56;;;;;;;3.08;2.80;;;25.10;73.60;;;;;;5063206;28;20832;-34
2023/08/09 02:32:23;;;;;;;3.03;2.83;;;25.10;73.50;;;;;;5054387;28;20162;-35
2023/08/09 02:34:51;;;;;;;2.67;2.47;;;25.10;73.40;;;;;;5058314;28;20045;-34
2023/08/09 02:37:17;;;;;;;4.22;2.78;;;25.10;73.40;;;;;;5058312;28;20660;-34
2023/08/09 02:39:43;;;;;;;3.08;2.78;;;25.10;73.40;;;;;;5064527;28;20035;-34
2023/08/09 02:42:09;;;;;;;3.00;2.40;;;25.10;73.40;;;;;;5076093;28;20024;-35
2023/08/09 02:44:36;;;;;;;3.05;2.28;;;25.10;73.40;;;;;;5055484;28;20056;-35
2023/08/09 02:47:03;;;;;;;2.90;2.60;;;25.10;73.50;;;;;;5060981;28;20025;-34
2023/08/09 02:49:29;;;;;;;2.55;2.35;;;25.10;73.70;;;;;;5062555;28;20558;-35
2023/08/09 02:51:55;;;;;;;3.67;2.27;;;25.10;73.80;;;;;;5064884;28;20029;-34
2023/08/09 02:54:22;;;;;;;3.08;2.70;;;25.10;74.00;;;;;;5061175;28;20128;-34
2023/08/09 02:56:48;;;;;;;6.65;2.75;;;25.10;74.00;;;;;;5053070;28;20035;-34
2023/08/09 02:59:14;;;;;;;3.17;2.47;;;25.10;74.10;;;;;;5058087;28;20025;-34
2023/08/09 03:01:41;;;;;;;3.78;2.67;;;25.10;74.10;;;;;;5060276;28;20078;-35
2023/08/09 03:04:07;;;;;;;3.45;2.50;;;25.10;74.00;;;;;;5066963;28;20044;-34
2023/08/09 03:06:33;;;;;;;2.78;2.35;;;25.00;73.80;;;;;;5061426;28;20033;-34
2023/08/09 03:08:59;;;;;;;2.88;2.55;;;25.00;73.70;;;;;;5062483;28;20055;-35
2023/08/09 03:11:25;;;;;;;4.20;2.50;;;25.00;73.70;;;;;;5060794;28;20031;-34
2023/08/09 03:13:52;;;;;;;2.78;2.50;;;25.00;73.60;;;;;;5058809;28;20033;-35
2023/08/09 03:16:18;;;;;;;3.53;2.58;;;25.00;73.60;;;;;;5059562;28;20037;-34
2023/08/09 03:18:44;;;;;;;2.90;2.30;;;25.00;73.50;;;;;;5062586;28;20096;-35
2023/08/09 03:21:11;;;;;;;2.72;2.53;;;25.00;73.60;;;;;;5062164;28;20032;-34
2023/08/09 03:23:37;;;;;;;4.53;2.67;;;25.00;73.60;;;;;;5064600;28;20041;-34
2023/08/09 03:26:03;;;;;;;2.90;2.60;;;25.00;73.50;;;;;;5074638;28;20388;-34
2023/08/09 03:28:29;;;;;;;3.55;2.33;;;25.00;73.60;;;;;;5074082;28;20039;-34
2023/08/09 03:30:56;;;;;;;4.20;2.70;;;25.00;73.70;;;;;;5065562;28;20059;-35
2023/08/09 03:33:23;;;;;;;2.72;2.53;;;25.00;73.70;;;;;;5061618;28;20767;-34
2023/08/09 03:35:49;;;;;;;2.97;2.60;;;25.00;73.80;;;;;;5068419;28;20036;-34
2023/08/09 03:38:15;;;;;;;2.55;2.33;;;25.00;73.90;;;;;;5071832;28;20457;-34
2023/08/09 03:40:41;;;;;;;2.40;2.20;;;25.00;73.90;;;;;;5078315;28;20034;-34
2023/08/09 03:43:07;;;;;;;2.47;2.27;;;25.00;73.90;;;;;;5069337;28;20040;-35
2023/08/09 03:45:33;;;;;;;2.60;2.40;;;25.00;73.80;;;;;;5058675;28;20612;-35
2023/08/09 03:48:00;;;;;;;4.75;2.45;;;25.00;73.80;;;;;;5043226;28;20033;-35
2023/08/09 03:50:26;;;;;;;2.42;2.22;;;25.00;73.70;;;;;;5074012;28;20040;-34
2023/08/09 03:52:53;;;;;;;3.43;2.70;;;25.00;73.70;;;;;;5057758;28;20028;-34
2023/08/09 03:55:19;;;;;;;3.17;2.60;;;25.00;73.80;;;;;;5065914;28;20085;-37
2023/08/09 03:58:05;;;;;;;2.85;2.42;;;24.90;73.70;;;;;;4965466;28;20035;-35
2023/08/09 04:00:32;;;;;;;3.57;2.60;;;25.00;73.80;;;;;;4962155;28;20122;-34
2023/08/09 04:02:58;;;;;;;3.33;2.57;;;25.00;73.80;;;;;;4957918;28;20043;-35
2023/08/09 04:05:24;;;;;;;3.08;2.78;;;24.90;73.80;;;;;;4961846;28;20074;-35
2023/08/09 04:07:50;;;;;;;2.58;2.38;;;24.90;73.80;;;;;;4959068;29;20036;-35
2023/08/09 04:10:17;;;;;;;3.37;2.33;;;24.90;73.80;;;;;;4960334;28;20045;-34
2023/08/09 04:12:43;;;;;;;3.53;2.70;;;24.90;73.80;;;;;;4964952;28;20107;-34
2023/08/09 04:15:10;;;;;;;2.70;2.50;;;24.90;73.80;;;;;;4968229;28;20061;-34
2023/08/09 04:17:36;;;;;;;2.50;2.30;;;24.90;73.80;;;;;;4966657;28;20031;-34
2023/08/09 04:20:04;;;;;;;2.83;2.50;;;24.90;73.80;;;;;;4953195;28;20063;-34
2023/08/09 04:22:30;;;;;;;2.80;2.47;;;24.90;73.80;;;;;;4941164;28;20047;-35
2023/08/09 04:24:56;;;;;;;2.97;2.70;;;24.90;73.80;;;;;;4968383;28;20046;-35
2023/08/09 04:27:22;;;;;;;2.70;2.50;;;24.90;73.90;;;;;;4959214;28;20040;-34
2023/08/09 04:29:48;;;;;;;3.05;2.42;;;24.90;73.90;;;;;;4964034;28;20557;-35
2023/08/09 04:32:14;;;;;;;2.53;2.33;;;24.90;74.00;;;;;;4964669;28;20086;-35
2023/08/09 04:34:40;;;;;;;4.22;2.55;;;24.80;74.00;;;;;;4984770;28;20112;-34
2023/08/09 04:37:06;;;;;;;2.63;2.42;;;24.80;73.90;;;;;;5065695;28;20087;-34
2023/08/09 04:39:33;;;;;;;2.43;2.23;;;24.80;74.00;;;;;;5062811;28;20129;-34
2023/08/09 04:41:59;;;;;;;4.13;2.90;;;24.80;74.10;;;;;;5064306;28;20033;-34
2023/08/09 04:44:25;;;;;;;2.87;2.60;;;24.80;74.20;;;;;;5066330;28;20091;-34
2023/08/09 04:46:51;;;;;;;2.92;2.50;;;24.80;74.20;;;;;;5060326;28;20044;-34
2023/08/09 04:49:18;;;;;;;2.60;2.40;;;24.80;74.20;;;;;;5068442;28;20033;-35
2023/08/09 04:51:44;;;;;;;2.50;2.30;;;24.80;74.20;;;;;;5069153;28;20064;-34
2023/08/09 04:54:11;;;;;;;2.80;2.40;;;24.80;74.20;;;;;;5064115;28;20093;-35
2023/08/09 04:56:37;;;;;;;;;;;24.80;74.20;;;;;;5073643;28;20044;-34
2023/08/09 04:59:03;;;;;;;3.40;2.63;;;24.80;74.20;;;;;;5070471;28;19909;-34
2023/08/09 05:01:29;;;;;;;2.40;2.20;;;24.80;74.20;;;;;;5062082;28;20053;-34
2023/08/09 05:03:55;;;;;;;3.50;2.75;;;24.80;74.20;;;;;;5055339;28;20029;-34
2023/08/09 05:06:22;;;;;;;2.70;2.50;;;24.80;74.20;;;;;;5063810;28;20027;-35
2023/08/09 05:08:48;;;;;;;3.08;2.78;;;24.80;74.30;;;;;;5055603;28;20052;-34
2023/08/09 05:11:14;;;;;;;2.87;2.57;;;24.80;74.30;;;;;;5055271;28;20029;-34
2023/08/09 05:13:40;;;;;;;3.58;2.80;;;24.70;74.40;;;;;;5073373;28;20441;-34
2023/08/09 05:16:07;;;;;;;3.00;2.80;;;24.70;74.40;;;;;;5057250;28;20037;-34
2023/08/09 05:18:33;;;;;;;3.90;2.70;;;24.70;74.50;;;;;;5052718;28;20036;-35
2023/08/09 05:20:59;;;;;;;2.92;2.33;;;24.70;74.50;;;;;;5046967;28;20103;-34
2023/08/09 05:23:25;;;;;;;3.95;2.80;;;24.70;74.60;;;;;;5061584;28;20037;-34
2023/08/09 05:25:51;;;;;;;3.05;2.80;;;24.70;74.60;;;;;;5071817;28;20033;-34
2023/08/09 05:28:17;;;;;;;2.95;2.67;;;24.70;74.50;;;;;;5062777;28;20033;-35
2023/08/09 05:30:44;;;;;;;2.70;2.38;;;24.70;74.60;;;;;;5061531;28;20025;-35
2023/08/09 05:33:10;;;;;;;2.58;2.30;;;24.70;74.60;;;;;;5068919;28;20044;-34
2023/08/09 05:35:36;;;;;;;2.40;2.17;;;24.70;74.70;;;;;;5071230;28;20086;-34
2023/08/09 05:38:03;;;;;;;3.15;2.45;;;24.60;74.60;;;;;;5058151;28;20040;-34
2023/08/09 05:40:29;;;;;;;2.58;2.38;;;24.60;74.70;;;;;;5053750;28;20029;-34
2023/08/09 05:42:55;;;;;;;4.10;2.67;;;24.60;74.60;;;;;;5061622;28;20037;-34
2023/08/09 05:45:22;;;;;;;2.72;2.53;;;24.60;74.60;;;;;;5062052;28;20033;-35
2023/08/09 05:47:48;;;;;;;3.20;2.90;;;24.60;74.80;;;;;;5064787;28;20020;-34
2023/08/09 05:50:15;;;;;;;2.63;2.42;;;24.60;74.60;;;;;;5063997;28;20029;-34
2023/08/09 05:52:41;;;;;;;3.10;2.67;;;24.60;74.70;;;;;;5057620;28;20037;-34
2023/08/09 05:55:08;;;;;;;3.30;2.65;;;24.60;74.80;;;;;;5063882;28;20120;-35
2023/08/09 05:57:36;;;;;;;2.72;2.50;;;24.60;74.90;;;;;;5063052;28;20040;-34
2023/08/09 06:00:04;;;;;;;3.35;2.60;;;24.60;74.90;;;;;;5062028;28;20040;-34
2023/08/09 06:02:33;;;;;;;4.03;2.88;;;24.60;74.90;;;;;;5061161;28;20020;-34
2023/08/09 06:05:00;;;;;;;2.72;2.53;;;24.60;75.00;;;;;;5063624;28;20421;-34
2023/08/09 06:07:27;;;;;;;2.78;2.58;;;24.60;75.00;;;;;;5044872;28;20036;-35
2023/08/09 06:09:54;;;;;;;2.67;2.47;;;24.60;75.40;;;;;;5052877;28;20095;-35
2023/08/09 06:12:20;;;;;;;2.55;2.35;;;24.50;75.00;;;;;;5070116;28;20546;-34
2023/08/09 06:14:46;;;;;;;2.80;2.60;;;24.50;74.90;;;;;;5062850;28;20500;-34
2023/08/09 06:17:12;;;;;;;3.07;2.77;;;24.50;74.90;;;;;;5055871;28;20042;-34
2023/08/09 06:19:38;;;;;;;3.03;2.83;;;24.50;74.90;;;;;;5057353;28;20067;-34
2023/08/09 06:22:04;;;;;;;3.10;2.80;;;24.50;75.00;;;;;;5050720;28;20039;-35
2023/08/09 06:24:31;;;;;;;2.67;2.47;;;24.50;74.90;;;;;;5062789;28;20052;-34
2023/08/09 06:26:57;;;;;;;2.90;2.70;;;24.50;74.90;;;;;;5055581;28;20032;-35
2023/08/09 06:29:23;;;;;;;2.97;2.67;;;24.50;75.00;;;;;;5063406;28;20484;-34
2023/08/09 06:31:50;;;;;;;3.20;3.00;;;24.50;75.00;;;;;;5064133;28;20037;-34
2023/08/09 06:34:16;;;;;;;3.10;2.80;;;24.50;75.00;;;;;;5060662;28;20093;-35
2023/08/09 06:36:42;;;;;;;3.03;2.70;;;24.50;75.10;;;;;;5069630;28;20105;-34
2023/08/09 06:39:09;;;;;;;3.00;2.80;;;24.50;75.10;;;;;;5068963;28;20142;-34
2023/08/09 06:41:35;;;;;;;2.75;2.55;;;24.50;75.10;;;;;;5071017;28;20132;-34
2023/08/09 06:44:01;;;;;;;3.00;2.70;;;24.50;75.10;;;;;;5061506;28;20079;-34
2023/08/09 06:46:27;;;;;;;3.13;2.83;;;24.50;75.20;;;;;;5072689;28;20067;-35
2023/08/09 06:48:54;;;;;;;3.10;2.80;;;24.40;75.20;;;;;;5059104;28;20052;-34
2023/08/09 06:51:20;;;;;;;2.80;2.60;;;24.40;75.20;;;;;;5052536;28;20021;-34
2023/08/09 06:53:47;;;;;;;2.90;2.70;;;24.40;75.10;;;;;;5058253;28;20037;-34
2023/08/09 06:56:13;;;;;;;2.70;2.50;;;24.40;75.20;;;;;;5062202;28;20482;-34
2023/08/09 06:58:40;;;;;;;2.72;2.50;;;24.40;75.20;;;;;;5044808;28;20032;-35
2023/08/09 07:01:09;;;;;;;2.80;2.60;;;24.40;75.10;;;;;;5069909;28;20020;-34
2023/08/09 07:03:36;;;;;;;3.45;2.70;;;24.40;75.10;;;;;;5067945;28;20431;-34
2023/08/09 07:06:03;;;;;;;2.95;2.60;;;24.40;75.20;;;;;;5078359;28;20074;-34
2023/08/09 07:08:29;;;;;;;2.83;2.63;;;24.40;75.20;;;;;;5064197;28;20112;-34
2023/08/09 07:10:55;;;;;;;3.22;3.00;;;24.40;75.30;;;;;;5065517;28;20088;-34
2023/08/09 07:13:22;;;;;;;2.88;2.58;;;24.40;75.30;;;;;;5065721;28;20060;-34
2023/08/09 07:15:48;;;;;;;2.45;2.25;;;24.30;75.20;;;;;;5073180;28;20025;-35
2023/08/09 07:18:14;;;;;;;3.05;2.70;;;24.30;75.30;;;;;;5071406;28;20052;-34
2023/08/09 07:20:40;;;;;;;2.70;2.50;;;24.30;75.30;;;;;;5073107;28;20060;-34
2023/08/09 07:23:06;;;;;;;3.80;2.73;;;24.30;75.20;;;;;;5074282;28;20044;-35
2023/08/09 07:25:33;;;;;;;2.78;2.58;;;24.30;75.30;;;;;;5064993;28;20120;-34
2023/08/09 07:27:59;;;;;;;2.83;2.63;;;24.30;75.20;;;;;;5069698;28;20032;-34
2023/08/09 07:30:25;;;;;;;3.20;2.53;;;24.30;75.30;;;;;;5066959;28;20031;-35
2023/08/09 07:32:51;;;;;;;3.00;2.80;;;24.30;75.20;;;;;;5057825;28;20065;-34
2023/08/09 07:35:18;;;;;;;3.28;2.63;;;24.30;75.20;;;;;;5047217;28;20029;-35
2023/08/09 07:37:45;;;;;;;3.85;2.53;;;24.30;75.20;;;;;;5063614;28;20021;-34
2023/08/09 07:40:12;;;;;;;3.00;2.75;;;24.30;75.20;;;;;;5060568;28;20068;-34
2023/08/09 07:42:38;;;;;;;3.08;2.78;;;24.30;75.40;;;;;;5058735;28;20079;-34
2023/08/09 07:45:05;;;;;;;2.70;2.50;;;24.30;75.30;;;;;;5060241;28;20454;-34
2023/08/09 07:47:31;;;;;;;2.60;2.40;;;24.30;75.40;;;;;;5065265;28;20175;-35
2023/08/09 07:49:58;;;;;;;3.10;2.80;;;24.30;75.30;;;;;;5060781;28;20099;-34
2023/08/09 07:52:24;;;;;;;2.78;2.58;;;24.30;75.40;;;;;;5059370;28;20017;-34
2023/08/09 07:54:51;;;;;;;3.03;2.73;;;24.20;75.50;;;;;;5063246;28;20033;-34
2023/08/09 07:57:17;;;;;;;2.80;2.50;;;24.20;75.40;;;;;;5067815;28;20029;-34
2023/08/09 07:59:43;;;;;;;2.97;2.77;;;24.20;75.30;;;;;;5065107;28;20029;-34
2023/08/09 08:02:09;;;;;;;3.65;2.55;;;24.20;75.50;;;;;;5058709;28;20033;-34
2023/08/09 08:04:35;;;;;;;2.50;2.30;;;24.20;75.50;;;;;;5064309;28;20033;-34
2023/08/09 08:07:03;;;;;;;2.75;2.55;;;24.20;75.40;;;;;;5063379;28;20818;-34
2023/08/09 08:09:32;;;;;;;2.80;2.50;;;24.20;75.50;;;;;;5064670;28;20032;-35
2023/08/09 08:11:59;;;;;;;3.55;2.58;;;24.20;75.50;;;;;;5068921;28;20036;-35
2023/08/09 08:14:25;;;;;;;2.60;2.40;;;24.20;75.50;;;;;;5062720;28;20021;-34
2023/08/09 08:16:51;;;;;;;2.77;2.50;;;24.20;75.60;;;;;;5053615;28;20041;-35
2023/08/09 08:19:17;;;;;;;2.78;2.58;;;24.10;75.50;;;;;;5061854;28;20078;-34
2023/08/09 08:21:44;;;;;;;2.83;2.63;;;24.10;75.50;;;;;;5068107;28;20021;-34
2023/08/09 08:24:11;;;;;;;2.78;2.55;;;24.10;75.50;;;;;;5069444;28;20033;-34
2023/08/09 08:26:38;;;;;;;4.00;2.72;;;24.10;75.60;;;;;;5058663;28;20035;-34
2023/08/09 08:29:04;;;;;;;2.88;2.58;;;24.10;75.60;;;;;;5059378;28;20055;-34
2023/08/09 08:31:30;;;;;;;2.70;2.50;;;24.10;75.60;;;;;;5064745;28;20135;-34
2023/08/09 08:33:56;;;;;;;2.90;2.70;;;24.10;75.60;;;;;;5062224;28;20036;-35
2023/08/09 08:36:25;;;;;;;2.75;2.55;;;24.10;75.60;;;;;;5058128;28;20021;-34
2023/08/09 08:38:52;;;;;;;2.70;2.50;;;24.10;75.60;;;;;;5058851;28;20091;-36
2023/08/09 08:41:19;;;;;;;3.85;2.72;;;24.10;75.60;;;;;;5063995;28;20030;-34
2023/08/09 08:43:45;;;;;;;3.63;2.80;;;24.10;75.60;;;;;;5060354;28;20033;-35
2023/08/09 08:46:15;;;;;;;2.87;2.67;;;24.10;75.70;;;;;;5069753;28;20029;-34
2023/08/09 08:48:45;;;;;;;2.97;2.67;;;24.10;75.60;;;;;;5063617;28;20033;-34
2023/08/09 08:51:11;;;;;;;2.70;2.50;;;24.10;75.70;;;;;;5048596;28;20025;-34
2023/08/09 08:53:37;;;;;;;2.80;2.60;;;24.00;75.60;;;;;;5072452;28;20021;-34
2023/08/09 08:56:04;;;;;;;2.92;2.30;;;24.00;75.60;;;;;;5057420;28;20031;-34
2023/08/09 08:58:31;;;;;;;3.10;2.80;;;24.00;75.60;;;;;;5057259;28;20030;-34
2023/08/09 09:00:57;;;;;;;;;;;24.00;75.70;;;;;;5052942;28;20581;-34
2023/08/09 09:03:23;;;;;;;2.95;2.50;;;24.00;75.70;;;;;;5041611;28;19956;-34
2023/08/09 09:05:49;;;;;;;2.58;2.38;;;24.00;75.70;;;;;;5058136;28;20024;-34
2023/08/09 09:08:15;;;;;;;2.97;2.70;;;24.00;75.70;;;;;;5063765;28;20097;-34
2023/08/09 09:10:45;;;;;;;3.10;2.80;;;24.00;75.70;;;;;;5049823;28;20033;-34
2023/08/09 09:13:31;;;;;;;2.80;2.60;;;24.00;75.80;;;;;;5081836;28;20687;-35
2023/08/09 09:15:58;;;;;;;2.58;2.38;;;24.00;75.80;;;;;;5052108;28;20033;-34
2023/08/09 09:18:24;;;;;;;3.30;3.00;;;24.00;75.70;;;;;;5063806;28;20040;-35
2023/08/09 09:20:51;;;;;;;3.13;2.83;;;24.00;75.70;;;;;;5069594;28;20029;-34
2023/08/09 09:23:28;;;;;;;3.05;2.78;;;24.00;75.70;;;;;;5037444;28;20037;-34
2023/08/09 09:26:18;;;;;;;3.05;2.80;;;24.00;75.70;;;;;;5059871;28;20029;-34
2023/08/09 09:31:35;;;;;;;3.25;2.65;;;23.90;75.70;;;;;;5063749;28;20091;-34
2023/08/09 09:34:03;;;;;;;2.97;2.40;;;23.90;75.70;;;;;;5068074;28;20036;-34
2023/08/09 09:36:29;;;;;;;3.80;2.72;;;23.90;75.70;;;;;;5062231;28;20021;-34
2023/08/09 09:38:56;;;;;;;2.95;2.75;;;23.90;75.80;;;;;;5048077;28;20060;-34
2023/08/09 09:41:22;;;;;;;2.88;2.67;;;23.90;75.80;;;;;;5070812;28;20052;-34
2023/08/09 09:43:50;;;;;;;2.80;2.60;;;23.90;75.80;;;;;;5079788;28;20032;-34
2023/08/09 09:46:20;;;;;;;3.80;2.47;;;23.90;75.80;;;;;;5062210;28;21177;-34
2023/08/09 09:48:48;;;;;;;2.72;2.53;;;23.90;76.00;;;;;;5063580;28;20064;-35
2023/08/09 09:51:16;;;;;;;2.85;2.65;;;23.90;75.90;;;;;;5063585;28;20110;-34
2023/08/09 09:53:43;;;;;;;3.15;2.53;;;23.80;75.90;;;;;;5059821;28;20128;-34
2023/08/09 09:56:09;;;;;;;2.80;2.60;;;23.80;76.00;;;;;;5045343;28;20039;-34
2023/08/09 09:58:36;;;;;;;3.13;2.75;;;23.80;75.90;;;;;;5070556;28;20388;-35
2023/08/09 10:01:02;;;;;;;3.00;2.55;;;23.80;75.90;;;;;;5062217;28;20028;-35
2023/08/09 10:03:29;;;;;;;2.77;2.57;;;23.80;75.90;;;;;;5067729;28;20056;-34
2023/08/09 10:05:56;;;;;;;2.60;2.40;;;23.80;75.90;;;;;;5056568;28;20025;-34
2023/08/09 10:08:22;;;;;;;3.40;2.95;;;23.80;75.90;;;;;;5051330;28;20498;-34
2023/08/09 10:10:49;;;;;;;2.90;2.70;;;23.80;75.90;;;;;;5066663;28;20021;-34
2023/08/09 10:13:21;;;;;;;2.80;2.60;;;23.80;75.90;;;;;;5074242;28;20028;-34
2023/08/09 10:15:53;;;;;;;3.38;2.90;;;23.80;75.90;;;;;;5041201;28;20032;-34
2023/08/09 10:18:39;;;;;;;3.15;2.80;;;23.80;75.90;;;;;;5042427;28;20025;-34
2023/08/09 10:21:05;;;;;;;3.10;2.90;;;23.80;75.90;;;;;;5046562;28;20053;-34
2023/08/09 10:23:31;;;;;;;2.80;2.60;;;23.80;76.00;;;;;;5045002;28;20048;-34
2023/08/09 10:25:57;;;;;;;3.13;2.67;;;23.80;76.00;;;;;;5064777;28;20028;-34
2023/08/09 10:28:45;;;;;;;2.75;2.55;;;23.80;76.70;;;;;;5056712;28;20419;-34
2023/08/09 10:31:13;;;;;;;2.80;2.28;;;23.70;76.00;;;;;;5059291;28;20113;-34
2023/08/09 10:34:03;;;;;;;3.20;2.90;;;23.70;75.90;;;;;;5042338;28;20047;-34
2023/08/09 10:36:32;;;;;;;2.95;2.47;;;23.70;75.90;;;;;;5029440;28;20517;-34
2023/08/09 10:38:59;;;;;;;2.50;2.30;;;23.70;75.90;;;;;;5061766;28;20079;-34
2023/08/09 10:41:28;;;;;;;3.28;2.90;;;23.70;76.00;;;;;;5042647;28;20029;-34
2023/08/09 10:44:03;;;;;;;2.95;2.63;;;23.70;76.00;;;;;;5056685;28;20037;-37
2023/08/09 10:46:33;;;;;;;2.88;2.67;;;23.70;75.90;;;;;;5040141;28;20052;-35
2023/08/09 10:49:03;;;;;;;2.70;2.50;;;23.70;76.00;;;;;;5072005;28;20046;-34
2023/08/09 10:51:29;;;;;;;2.60;2.40;;;23.70;76.00;;;;;;5062976;28;20756;-34
2023/08/09 10:54:05;;;;;;;4.72;3.22;;;23.70;76.00;;;;;;5056527;28;20030;-34
2023/08/09 10:56:32;;;;;;;3.80;2.20;;;23.70;76.00;;;;;;5056611;28;20021;-34
2023/08/09 10:59:14;;;;;;;2.88;2.67;;;23.70;76.00;;;;;;5061873;28;20040;-34
2023/08/09 11:01:43;;;;;;;2.65;2.45;;;23.70;76.10;;;;;;5064272;28;20096;-35
2023/08/09 11:04:13;;;;;;;3.67;2.88;;;23.70;76.10;;;;;;5064879;28;20093;-34
2023/08/09 11:06:42;;;;;;;3.17;2.65;;;23.70;76.20;;;;;;5061981;28;20029;-34
2023/08/09 11:09:16;;;;;;;3.17;2.88;;;23.60;76.10;;;;;;5056238;28;20213;-34
2023/08/09 11:11:43;;;;;;;2.95;2.75;;;23.60;76.10;;;;;;5061445;28;20021;-34
2023/08/09 11:14:11;;;;;;;3.13;2.90;;;23.60;76.10;;;;;;5068043;28;20028;-34
2023/08/09 11:16:37;;;;;;;3.10;2.80;;;23.60;76.20;;;;;;5068466;28;20024;-34
2023/08/09 11:19:07;;;;;;;3.00;2.80;;;23.60;76.10;;;;;;5060324;28;20032;-34
2023/08/09 11:21:45;;;;;;;3.42;2.80;;;23.60;76.10;;;;;;5057206;28;20386;-34
2023/08/09 11:24:13;;;;;;;2.95;2.65;;;23.60;76.10;;;;;;5036760;28;20037;-34
2023/08/09 11:26:53;;;;;;;3.42;3.13;;;23.60;76.10;;;;;;5060517;28;20025;-34
2023/08/09 11:29:20;;;;;;;3.38;2.80;;;23.60;76.10;;;;;;5060165;28;20029;-34
2023/08/09 11:31:48;;;;;;;3.05;2.85;;;23.60;76.90;;;;;;5065040;28;20048;-34
2023/08/09 11:34:16;;;;;;;2.88;2.67;;;23.60;76.20;;;;;;5071544;28;20028;-34
2023/08/09 11:36:43;;;;;;;3.20;2.90;;;23.60;76.20;;;;;;5062234;28;20067;-34
2023/08/09 11:39:10;;;;;;;3.63;2.75;;;23.60;76.20;;;;;;5061357;28;20021;-34
2023/08/09 11:41:53;;;;;;;;;;;23.60;76.30;;;;;;5060070;28;20029;-34
2023/08/09 11:44:29;;;;;;;2.88;2.67;;;23.60;76.30;;;;;;5059923;28;19955;-34
2023/08/09 11:46:56;;;;;;;4.00;2.65;;;23.50;76.30;;;;;;5061869;28;20023;-34
2023/08/09 11:49:29;;;;;;;3.17;2.88;;;23.60;76.30;;;;;;5067231;28;20021;-34
2023/08/09 11:51:55;;;;;;;2.85;2.63;;;23.50;76.30;;;;;;5062662;28;20025;-34
2023/08/09 11:54:22;;;;;;;3.10;2.80;;;23.50;76.30;;;;;;5074314;28;20055;-35
2023/08/09 11:56:48;;;;;;;3.00;2.80;;;23.50;76.40;;;;;;5079249;28;20017;-34
2023/08/09 11:59:18;;;;;;;3.30;3.00;;;23.50;76.40;;;;;;5064552;28;20044;-34
2023/08/09 12:01:46;;;;;;;2.80;2.60;;;23.50;76.30;;;;;;5060451;28;20029;-34
2023/08/09 12:04:13;;;;;;;;;;;23.50;76.30;;;;;;5057404;28;20063;-34
2023/08/09 12:06:42;;;;;;;2.67;2.47;;;23.50;76.40;;;;;;5054792;28;19917;-34
2023/08/09 12:09:30;;;;;;;3.15;2.85;;;23.50;76.40;;;;;;5058957;28;20101;-34
2023/08/09 12:12:02;;;;;;;3.00;2.80;;;23.50;76.40;;;;;;5066806;28;20139;-34
2023/08/09 12:14:28;;;;;;;2.70;2.50;;;23.50;76.40;;;;;;5066928;28;20034;-34
2023/08/09 12:16:55;;;;;;;3.38;3.08;;;23.50;76.40;;;;;;5071072;28;20021;-34
2023/08/09 12:19:21;;;;;;;3.33;3.00;;;23.50;77.20;;;;;;5071208;28;20087;-34
2023/08/09 12:21:47;;;;;;;3.60;3.30;;;23.50;76.50;;;;;;5055881;28;20071;-34
2023/08/09 12:24:14;;;;;;;3.20;3.00;;;23.50;76.50;;;;;;5054019;28;20029;-35
2023/08/09 12:26:40;;;;;;;3.33;3.03;;;23.50;76.60;;;;;;5063234;28;20036;-34
2023/08/09 12:29:09;;;;;;;3.30;3.00;;;23.50;76.70;;;;;;5073855;28;20124;-34
2023/08/09 12:31:36;;;;;;;3.95;2.60;;;23.50;76.60;;;;;;5074489;28;20135;-34
2023/08/09 12:34:03;;;;;;;4.60;3.05;;;23.40;76.60;;;;;;5060789;28;20033;-34
2023/08/09 12:36:30;;;;;;;3.72;3.05;;;23.50;76.70;;;;;;5067188;28;20037;-34
2023/08/09 12:38:56;;;;;;;2.97;2.78;;;23.40;76.60;;;;;;5071947;28;20029;-34
2023/08/09 12:41:23;;;;;;;3.33;3.10;;;23.40;76.60;;;;;;5065340;28;20030;-34
2023/08/09 12:43:49;;;;;;;2.83;2.63;;;23.40;76.60;;;;;;5064551;28;20045;-34
2023/08/09 12:46:16;;;;;;;2.88;2.67;;;23.40;76.70;;;;;;5062982;28;20040;-34
2023/08/09 12:48:42;;;;;;;4.05;3.00;;;23.40;76.70;;;;;;5060895;28;20037;-34
2023/08/09 12:51:09;;;;;;;3.30;3.00;;;23.40;76.70;;;;;;5047092;28;20037;-35